sensor_id;sensor_type;location;lat;lon;timestamp;temperature;humidity
18721;DHT22;9489;50.948;3.114;2022-12-24T00:00:31;11.20;99.90
18721;DHT22;9489;50.948;3.114;2022-12-24T00:02:57;11.10;99.90
18721;DHT22;9489;50.948;3.114;2022-12-24T00:05:23;11.10;99.90
18721;DHT22;9489;50.948;3.114;2022-12-24T00:07:48;11.10;99.90
18721;DHT22;9489;50.948;3.114;2022-12-24T00:10:14;11.10;99.90
18721;DHT22;9489;50.948;3.114;2022-12-24T00:12:39;11.10;99.90
18721;DHT22;9489;50.948;3.114;2022-12-24T00:15:06;11.10;99.90
18721;DHT22;9489;50.948;3.114;2022-12-24T00:17:32;11.10;99.90
18721;DHT22;9489;50.948;3.114;2022-12-24T00:19:57;11.10;99.90
18721;DHT22;9489;50.948;3.114;2022-12-24T00:22:23;11.00;99.90
18721;DHT22;9489;50.948;3.114;2022-12-24T00:24:49;11.00;99.90
18721;DHT22;9489;50.948;3.114;2022-12-24T00:27:15;11.00;99.90
18721;DHT22;9489;50.948;3.114;2022-12-24T00:29:41;11.00;99.90
18721;DHT22;9489;50.948;3.114;2022-12-24T00:32:06;11.00;99.90
18721;DHT22;9489;50.948;3.114;2022-12-24T00:34:38;11.00;99.90
18721;DHT22;9489;50.948;3.114;2022-12-24T00:37:03;11.00;99.90
18721;DHT22;9489;50.948;3.114;2022-12-24T00:39:29;11.00;99.90
18721;DHT22;9489;50.948;3.114;2022-12-24T00:41:55;10.90;99.90
18721;DHT22;9489;50.948;3.114;2022-12-24T00:44:20;10.90;99.90
18721;DHT22;9489;50.948;3.114;2022-12-24T00:46:46;10.90;99.90
18721;DHT22;9489;50.948;3.114;2022-12-24T00:49:12;10.90;99.90
18721;DHT22;9489;50.948;3.114;2022-12-24T00:51:38;10.90;99.90
18721;DHT22;9489;50.948;3.114;2022-12-24T00:54:04;10.90;99.90
18721;DHT22;9489;50.948;3.114;2022-12-24T00:56:31;11.00;99.90
18721;DHT22;9489;50.948;3.114;2022-12-24T00:58:56;11.00;99.90
18721;DHT22;9489;50.948;3.114;2022-12-24T01:01:22;11.00;99.90
18721;DHT22;9489;50.948;3.114;2022-12-24T01:03:48;11.10;99.90
18721;DHT22;9489;50.948;3.114;2022-12-24T01:06:17;11.10;99.90
18721;DHT22;9489;50.948;3.114;2022-12-24T01:08:43;11.20;99.90
18721;DHT22;9489;50.948;3.114;2022-12-24T01:11:10;11.10;99.90
18721;DHT22;9489;50.948;3.114;2022-12-24T01:13:36;11.20;99.90
18721;DHT22;9489;50.948;3.114;2022-12-24T01:16:03;11.20;99.90
18721;DHT22;9489;50.948;3.114;2022-12-24T01:18:28;11.20;99.90
18721;DHT22;9489;50.948;3.114;2022-12-24T01:20:59;11.20;99.90
18721;DHT22;9489;50.948;3.114;2022-12-24T01:23:25;11.20;99.90
18721;DHT22;9489;50.948;3.114;2022-12-24T01:25:51;11.20;99.90
18721;DHT22;9489;50.948;3.114;2022-12-24T01:28:18;11.10;99.90
18721;DHT22;9489;50.948;3.114;2022-12-24T01:30:43;11.10;99.90
18721;DHT22;9489;50.948;3.114;2022-12-24T01:33:09;11.10;99.90
18721;DHT22;9489;50.948;3.114;2022-12-24T01:35:41;11.00;99.90
18721;DHT22;9489;50.948;3.114;2022-12-24T01:38:07;11.00;99.90
18721;DHT22;9489;50.948;3.114;2022-12-24T01:40:33;11.00;99.90
18721;DHT22;9489;50.948;3.114;2022-12-24T01:43:20;11.00;99.90
18721;DHT22;9489;50.948;3.114;2022-12-24T01:45:58;10.90;99.90
18721;DHT22;9489;50.948;3.114;2022-12-24T01:48:38;11.00;99.90
18721;DHT22;9489;50.948;3.114;2022-12-24T01:53:53;11.00;99.90
18721;DHT22;9489;50.948;3.114;2022-12-24T01:56:20;11.00;99.90
18721;DHT22;9489;50.948;3.114;2022-12-24T01:58:50;11.00;99.90
18721;DHT22;9489;50.948;3.114;2022-12-24T02:01:17;11.00;99.90
18721;DHT22;9489;50.948;3.114;2022-12-24T02:03:43;11.00;99.90
18721;DHT22;9489;50.948;3.114;2022-12-24T02:06:09;11.00;99.90
18721;DHT22;9489;50.948;3.114;2022-12-24T02:08:40;11.00;99.90
18721;DHT22;9489;50.948;3.114;2022-12-24T02:11:24;10.90;99.90
18721;DHT22;9489;50.948;3.114;2022-12-24T02:13:54;10.90;99.90
18721;DHT22;9489;50.948;3.114;2022-12-24T02:16:37;10.90;99.90
18721;DHT22;9489;50.948;3.114;2022-12-24T02:21:52;10.80;99.90
18721;DHT22;9489;50.948;3.114;2022-12-24T02:27:28;10.80;99.90
18721;DHT22;9489;50.948;3.114;2022-12-24T02:35:49;10.70;99.90
18721;DHT22;9489;50.948;3.114;2022-12-24T02:38:46;10.70;99.90
18721;DHT22;9489;50.948;3.114;2022-12-24T02:41:36;10.70;99.90
18721;DHT22;9489;50.948;3.114;2022-12-24T02:44:25;10.60;99.90
18721;DHT22;9489;50.948;3.114;2022-12-24T02:46:51;10.60;99.90
18721;DHT22;9489;50.948;3.114;2022-12-24T02:49:17;10.60;99.90
18721;DHT22;9489;50.948;3.114;2022-12-24T02:51:43;10.60;99.90
18721;DHT22;9489;50.948;3.114;2022-12-24T02:54:09;10.50;99.90
18721;DHT22;9489;50.948;3.114;2022-12-24T02:56:59;10.50;99.90
18721;DHT22;9489;50.948;3.114;2022-12-24T02:59:46;10.50;99.90
18721;DHT22;9489;50.948;3.114;2022-12-24T03:02:25;10.50;99.90
18721;DHT22;9489;50.948;3.114;2022-12-24T03:05:28;10.40;99.90
18721;DHT22;9489;50.948;3.114;2022-12-24T03:10:47;10.40;99.90
18721;DHT22;9489;50.948;3.114;2022-12-24T03:13:16;10.40;99.90
18721;DHT22;9489;50.948;3.114;2022-12-24T03:15:43;10.40;99.90
18721;DHT22;9489;50.948;3.114;2022-12-24T03:18:11;10.40;99.90
18721;DHT22;9489;50.948;3.114;2022-12-24T03:20:47;10.40;99.90
18721;DHT22;9489;50.948;3.114;2022-12-24T03:23:14;10.40;99.90
18721;DHT22;9489;50.948;3.114;2022-12-24T03:25:42;10.40;99.90
18721;DHT22;9489;50.948;3.114;2022-12-24T03:28:10;10.40;99.90
18721;DHT22;9489;50.948;3.114;2022-12-24T03:30:41;10.40;99.90
18721;DHT22;9489;50.948;3.114;2022-12-24T03:33:08;10.40;99.90
18721;DHT22;9489;50.948;3.114;2022-12-24T03:35:33;10.40;99.90
18721;DHT22;9489;50.948;3.114;2022-12-24T03:37:59;10.30;99.90
18721;DHT22;9489;50.948;3.114;2022-12-24T03:40:25;10.30;99.90
18721;DHT22;9489;50.948;3.114;2022-12-24T03:42:51;10.30;99.90
18721;DHT22;9489;50.948;3.114;2022-12-24T03:45:16;10.30;99.90
18721;DHT22;9489;50.948;3.114;2022-12-24T03:47:42;10.30;99.90
18721;DHT22;9489;50.948;3.114;2022-12-24T03:50:08;10.30;99.90
18721;DHT22;9489;50.948;3.114;2022-12-24T03:52:33;10.30;99.90
18721;DHT22;9489;50.948;3.114;2022-12-24T03:54:59;10.40;99.90
18721;DHT22;9489;50.948;3.114;2022-12-24T03:57:25;10.40;99.90
18721;DHT22;9489;50.948;3.114;2022-12-24T03:59:50;10.40;99.90
18721;DHT22;9489;50.948;3.114;2022-12-24T04:02:16;10.40;99.90
18721;DHT22;9489;50.948;3.114;2022-12-24T04:04:41;10.40;99.90
18721;DHT22;9489;50.948;3.114;2022-12-24T04:07:07;10.30;99.90
18721;DHT22;9489;50.948;3.114;2022-12-24T04:09:33;10.30;99.90
18721;DHT22;9489;50.948;3.114;2022-12-24T04:11:58;10.30;99.90
18721;DHT22;9489;50.948;3.114;2022-12-24T04:14:24;10.30;99.90
18721;DHT22;9489;50.948;3.114;2022-12-24T04:16:49;10.30;99.90
18721;DHT22;9489;50.948;3.114;2022-12-24T04:19:15;10.30;99.90
18721;DHT22;9489;50.948;3.114;2022-12-24T04:21:41;10.30;99.90
18721;DHT22;9489;50.948;3.114;2022-12-24T04:24:06;10.30;99.90
18721;DHT22;9489;50.948;3.114;2022-12-24T04:26:32;10.30;99.90
18721;DHT22;9489;50.948;3.114;2022-12-24T04:28:58;10.30;99.90
18721;DHT22;9489;50.948;3.114;2022-12-24T04:31:23;10.30;99.90
18721;DHT22;9489;50.948;3.114;2022-12-24T04:33:50;10.30;99.90
18721;DHT22;9489;50.948;3.114;2022-12-24T04:36:17;10.30;99.90
18721;DHT22;9489;50.948;3.114;2022-12-24T04:38:44;10.30;99.90
18721;DHT22;9489;50.948;3.114;2022-12-24T04:41:12;10.30;99.90
18721;DHT22;9489;50.948;3.114;2022-12-24T04:43:38;10.40;99.90
18721;DHT22;9489;50.948;3.114;2022-12-24T04:46:09;10.40;99.90
18721;DHT22;9489;50.948;3.114;2022-12-24T04:48:36;10.40;99.90
18721;DHT22;9489;50.948;3.114;2022-12-24T04:51:02;10.40;99.90
18721;DHT22;9489;50.948;3.114;2022-12-24T04:53:29;10.40;99.90
18721;DHT22;9489;50.948;3.114;2022-12-24T04:55:55;10.40;99.90
18721;DHT22;9489;50.948;3.114;2022-12-24T04:58:20;10.50;99.90
18721;DHT22;9489;50.948;3.114;2022-12-24T05:00:46;10.50;99.90
18721;DHT22;9489;50.948;3.114;2022-12-24T05:03:12;10.50;99.90
18721;DHT22;9489;50.948;3.114;2022-12-24T05:05:37;10.50;99.90
18721;DHT22;9489;50.948;3.114;2022-12-24T05:08:03;10.40;99.90
18721;DHT22;9489;50.948;3.114;2022-12-24T05:10:28;10.40;99.90
18721;DHT22;9489;50.948;3.114;2022-12-24T05:12:54;10.40;99.90
18721;DHT22;9489;50.948;3.114;2022-12-24T05:15:20;10.40;99.90
18721;DHT22;9489;50.948;3.114;2022-12-24T05:17:45;10.30;99.90
18721;DHT22;9489;50.948;3.114;2022-12-24T05:20:11;10.30;99.90
18721;DHT22;9489;50.948;3.114;2022-12-24T05:22:37;10.30;99.90
18721;DHT22;9489;50.948;3.114;2022-12-24T05:25:21;10.30;99.90
18721;DHT22;9489;50.948;3.114;2022-12-24T05:28:05;10.30;99.90
18721;DHT22;9489;50.948;3.114;2022-12-24T05:30:32;10.30;99.90
18721;DHT22;9489;50.948;3.114;2022-12-24T05:32:58;10.30;99.90
18721;DHT22;9489;50.948;3.114;2022-12-24T05:35:23;10.30;99.90
18721;DHT22;9489;50.948;3.114;2022-12-24T05:37:49;10.30;99.90
18721;DHT22;9489;50.948;3.114;2022-12-24T05:40:14;10.40;99.90
18721;DHT22;9489;50.948;3.114;2022-12-24T05:42:40;10.40;99.90
18721;DHT22;9489;50.948;3.114;2022-12-24T05:45:06;10.40;99.90
18721;DHT22;9489;50.948;3.114;2022-12-24T05:47:32;10.40;99.90
18721;DHT22;9489;50.948;3.114;2022-12-24T05:49:58;10.50;99.90
18721;DHT22;9489;50.948;3.114;2022-12-24T05:52:23;10.50;99.90
18721;DHT22;9489;50.948;3.114;2022-12-24T05:54:49;10.50;99.90
18721;DHT22;9489;50.948;3.114;2022-12-24T05:57:15;10.50;99.90
18721;DHT22;9489;50.948;3.114;2022-12-24T05:59:40;10.50;99.90
18721;DHT22;9489;50.948;3.114;2022-12-24T06:02:06;10.50;99.90
18721;DHT22;9489;50.948;3.114;2022-12-24T06:04:32;10.50;99.90
18721;DHT22;9489;50.948;3.114;2022-12-24T06:06:57;10.50;99.90
18721;DHT22;9489;50.948;3.114;2022-12-24T06:09:23;10.50;99.90
18721;DHT22;9489;50.948;3.114;2022-12-24T06:11:48;10.50;99.90
18721;DHT22;9489;50.948;3.114;2022-12-24T06:14:14;10.50;99.90
18721;DHT22;9489;50.948;3.114;2022-12-24T06:16:39;10.50;99.90
18721;DHT22;9489;50.948;3.114;2022-12-24T06:19:05;10.50;99.90
18721;DHT22;9489;50.948;3.114;2022-12-24T06:21:30;10.50;99.90
18721;DHT22;9489;50.948;3.114;2022-12-24T06:23:56;10.50;99.90
18721;DHT22;9489;50.948;3.114;2022-12-24T06:26:22;10.50;99.90
18721;DHT22;9489;50.948;3.114;2022-12-24T06:28:48;10.50;99.90
18721;DHT22;9489;50.948;3.114;2022-12-24T06:31:16;10.50;99.90
18721;DHT22;9489;50.948;3.114;2022-12-24T06:33:43;10.50;99.90
18721;DHT22;9489;50.948;3.114;2022-12-24T06:36:13;10.60;99.90
18721;DHT22;9489;50.948;3.114;2022-12-24T06:38:39;10.60;99.90
18721;DHT22;9489;50.948;3.114;2022-12-24T06:41:06;10.60;99.90
18721;DHT22;9489;50.948;3.114;2022-12-24T06:43:32;10.60;99.90
18721;DHT22;9489;50.948;3.114;2022-12-24T06:46:02;10.60;99.90
18721;DHT22;9489;50.948;3.114;2022-12-24T06:48:27;10.60;99.90
18721;DHT22;9489;50.948;3.114;2022-12-24T06:50:53;10.60;99.90
18721;DHT22;9489;50.948;3.114;2022-12-24T06:53:19;10.60;99.90
18721;DHT22;9489;50.948;3.114;2022-12-24T06:55:45;10.60;99.90
18721;DHT22;9489;50.948;3.114;2022-12-24T06:58:10;10.60;99.90
18721;DHT22;9489;50.948;3.114;2022-12-24T07:00:36;10.60;99.90
18721;DHT22;9489;50.948;3.114;2022-12-24T07:03:02;10.50;99.90
18721;DHT22;9489;50.948;3.114;2022-12-24T07:05:28;10.50;99.90
18721;DHT22;9489;50.948;3.114;2022-12-24T07:07:55;10.50;99.90
18721;DHT22;9489;50.948;3.114;2022-12-24T07:10:21;10.50;99.90
18721;DHT22;9489;50.948;3.114;2022-12-24T07:12:47;10.50;99.90
18721;DHT22;9489;50.948;3.114;2022-12-24T07:15:13;10.40;99.90
18721;DHT22;9489;50.948;3.114;2022-12-24T07:17:39;10.40;99.90
18721;DHT22;9489;50.948;3.114;2022-12-24T07:20:07;10.40;99.90
18721;DHT22;9489;50.948;3.114;2022-12-24T07:22:32;10.40;99.90
18721;DHT22;9489;50.948;3.114;2022-12-24T07:24:58;10.40;99.90
18721;DHT22;9489;50.948;3.114;2022-12-24T07:27:24;10.40;99.90
18721;DHT22;9489;50.948;3.114;2022-12-24T07:29:49;10.40;99.90
18721;DHT22;9489;50.948;3.114;2022-12-24T07:32:15;10.40;99.90
18721;DHT22;9489;50.948;3.114;2022-12-24T07:34:40;10.30;99.90
18721;DHT22;9489;50.948;3.114;2022-12-24T07:37:07;10.30;99.90
18721;DHT22;9489;50.948;3.114;2022-12-24T07:39:32;10.30;99.90
18721;DHT22;9489;50.948;3.114;2022-12-24T07:41:58;10.30;99.90
18721;DHT22;9489;50.948;3.114;2022-12-24T07:44:23;10.30;99.90
18721;DHT22;9489;50.948;3.114;2022-12-24T07:46:50;10.30;99.90
18721;DHT22;9489;50.948;3.114;2022-12-24T07:49:15;10.30;99.90
18721;DHT22;9489;50.948;3.114;2022-12-24T07:51:41;10.30;99.90
18721;DHT22;9489;50.948;3.114;2022-12-24T07:54:07;10.30;99.90
18721;DHT22;9489;50.948;3.114;2022-12-24T07:56:33;10.30;99.90
18721;DHT22;9489;50.948;3.114;2022-12-24T07:58:59;10.20;99.90
18721;DHT22;9489;50.948;3.114;2022-12-24T08:01:24;10.30;99.90
18721;DHT22;9489;50.948;3.114;2022-12-24T08:03:50;10.30;99.90
18721;DHT22;9489;50.948;3.114;2022-12-24T08:06:19;10.30;99.90
18721;DHT22;9489;50.948;3.114;2022-12-24T08:08:44;10.30;99.90
18721;DHT22;9489;50.948;3.114;2022-12-24T08:11:12;10.30;99.90
18721;DHT22;9489;50.948;3.114;2022-12-24T08:13:38;10.30;99.90
18721;DHT22;9489;50.948;3.114;2022-12-24T08:16:04;10.30;99.90
18721;DHT22;9489;50.948;3.114;2022-12-24T08:18:30;10.30;99.90
18721;DHT22;9489;50.948;3.114;2022-12-24T08:20:55;10.20;99.90
18721;DHT22;9489;50.948;3.114;2022-12-24T08:23:21;10.20;99.90
18721;DHT22;9489;50.948;3.114;2022-12-24T08:25:47;10.20;99.90
18721;DHT22;9489;50.948;3.114;2022-12-24T08:28:15;10.20;99.90
18721;DHT22;9489;50.948;3.114;2022-12-24T08:30:41;10.20;99.90
18721;DHT22;9489;50.948;3.114;2022-12-24T08:33:07;10.20;99.90
18721;DHT22;9489;50.948;3.114;2022-12-24T08:35:33;10.20;99.90
18721;DHT22;9489;50.948;3.114;2022-12-24T08:37:58;10.20;99.90
18721;DHT22;9489;50.948;3.114;2022-12-24T08:40:24;10.20;99.90
18721;DHT22;9489;50.948;3.114;2022-12-24T08:42:50;10.30;99.90
18721;DHT22;9489;50.948;3.114;2022-12-24T08:45:16;10.30;99.90
18721;DHT22;9489;50.948;3.114;2022-12-24T08:47:42;10.30;99.90
18721;DHT22;9489;50.948;3.114;2022-12-24T08:50:08;10.30;99.90
18721;DHT22;9489;50.948;3.114;2022-12-24T08:52:34;10.30;99.90
18721;DHT22;9489;50.948;3.114;2022-12-24T08:55:00;10.30;99.90
18721;DHT22;9489;50.948;3.114;2022-12-24T08:57:25;10.30;99.90
18721;DHT22;9489;50.948;3.114;2022-12-24T08:59:51;10.40;99.90
18721;DHT22;9489;50.948;3.114;2022-12-24T09:02:17;10.40;99.90
18721;DHT22;9489;50.948;3.114;2022-12-24T09:04:43;10.40;99.90
18721;DHT22;9489;50.948;3.114;2022-12-24T09:07:09;10.40;99.90
18721;DHT22;9489;50.948;3.114;2022-12-24T09:09:35;10.40;99.90
18721;DHT22;9489;50.948;3.114;2022-12-24T09:12:04;10.40;99.90
18721;DHT22;9489;50.948;3.114;2022-12-24T09:14:29;10.50;99.90
18721;DHT22;9489;50.948;3.114;2022-12-24T09:16:55;10.60;99.90
18721;DHT22;9489;50.948;3.114;2022-12-24T09:19:21;10.70;99.90
18721;DHT22;9489;50.948;3.114;2022-12-24T09:21:46;10.60;99.90
18721;DHT22;9489;50.948;3.114;2022-12-24T09:24:12;10.60;99.90
18721;DHT22;9489;50.948;3.114;2022-12-24T09:26:40;10.70;99.90
18721;DHT22;9489;50.948;3.114;2022-12-24T09:29:07;10.60;99.90
18721;DHT22;9489;50.948;3.114;2022-12-24T09:31:34;10.60;99.90
18721;DHT22;9489;50.948;3.114;2022-12-24T09:33:59;10.60;99.90
18721;DHT22;9489;50.948;3.114;2022-12-24T09:36:25;10.70;99.90
18721;DHT22;9489;50.948;3.114;2022-12-24T09:38:51;10.70;99.90
18721;DHT22;9489;50.948;3.114;2022-12-24T09:44:07;10.70;99.90
18721;DHT22;9489;50.948;3.114;2022-12-24T09:46:42;10.70;99.90
18721;DHT22;9489;50.948;3.114;2022-12-24T09:49:14;10.70;99.90
18721;DHT22;9489;50.948;3.114;2022-12-24T09:51:45;10.70;99.90
18721;DHT22;9489;50.948;3.114;2022-12-24T09:54:32;10.80;99.90
18721;DHT22;9489;50.948;3.114;2022-12-24T09:57:07;10.90;99.90
18721;DHT22;9489;50.948;3.114;2022-12-24T09:59:46;11.10;99.90
18721;DHT22;9489;50.948;3.114;2022-12-24T10:02:17;11.30;99.90
18721;DHT22;9489;50.948;3.114;2022-12-24T10:04:45;11.40;99.90
18721;DHT22;9489;50.948;3.114;2022-12-24T10:10:39;11.50;99.90
18721;DHT22;9489;50.948;3.114;2022-12-24T10:13:26;11.60;99.90
18721;DHT22;9489;50.948;3.114;2022-12-24T10:16:36;11.60;99.90
18721;DHT22;9489;50.948;3.114;2022-12-24T10:19:30;11.60;99.90
18721;DHT22;9489;50.948;3.114;2022-12-24T10:22:26;11.60;99.90
18721;DHT22;9489;50.948;3.114;2022-12-24T10:25:25;11.70;99.90
18721;DHT22;9489;50.948;3.114;2022-12-24T10:27:54;11.70;99.90
18721;DHT22;9489;50.948;3.114;2022-12-24T10:30:21;11.70;99.90
18721;DHT22;9489;50.948;3.114;2022-12-24T10:32:49;11.70;99.90
18721;DHT22;9489;50.948;3.114;2022-12-24T10:37:46;11.80;99.90
18721;DHT22;9489;50.948;3.114;2022-12-24T10:40:39;11.90;99.90
18721;DHT22;9489;50.948;3.114;2022-12-24T10:43:16;12.20;99.90
18721;DHT22;9489;50.948;3.114;2022-12-24T10:45:45;12.30;99.90
18721;DHT22;9489;50.948;3.114;2022-12-24T10:48:19;12.30;99.90
18721;DHT22;9489;50.948;3.114;2022-12-24T10:50:52;12.20;99.90
18721;DHT22;9489;50.948;3.114;2022-12-24T10:56:24;11.90;99.90
18721;DHT22;9489;50.948;3.114;2022-12-24T10:58:52;11.90;99.90
18721;DHT22;9489;50.948;3.114;2022-12-24T11:01:19;12.00;99.90
18721;DHT22;9489;50.948;3.114;2022-12-24T11:03:59;12.10;99.90
18721;DHT22;9489;50.948;3.114;2022-12-24T11:06:24;12.00;99.90
18721;DHT22;9489;50.948;3.114;2022-12-24T11:08:50;12.00;99.90
18721;DHT22;9489;50.948;3.114;2022-12-24T11:11:18;12.10;99.90
18721;DHT22;9489;50.948;3.114;2022-12-24T11:16:28;12.30;99.90
18721;DHT22;9489;50.948;3.114;2022-12-24T11:18:56;12.30;99.90
18721;DHT22;9489;50.948;3.114;2022-12-24T11:21:28;12.30;99.90
18721;DHT22;9489;50.948;3.114;2022-12-24T11:24:07;12.40;99.90
18721;DHT22;9489;50.948;3.114;2022-12-24T11:26:34;12.60;99.90
18721;DHT22;9489;50.948;3.114;2022-12-24T11:29:13;13.00;99.90
18721;DHT22;9489;50.948;3.114;2022-12-24T11:31:40;13.40;99.90
18721;DHT22;9489;50.948;3.114;2022-12-24T11:34:28;13.90;99.90
18721;DHT22;9489;50.948;3.114;2022-12-24T11:37:12;14.30;99.90
18721;DHT22;9489;50.948;3.114;2022-12-24T11:39:40;14.70;99.90
18721;DHT22;9489;50.948;3.114;2022-12-24T11:42:07;14.80;99.90
18721;DHT22;9489;50.948;3.114;2022-12-24T11:44:48;14.80;99.90
18721;DHT22;9489;50.948;3.114;2022-12-24T11:47:14;14.80;99.90
18721;DHT22;9489;50.948;3.114;2022-12-24T11:49:40;14.50;99.90
18721;DHT22;9489;50.948;3.114;2022-12-24T11:54:44;14.40;99.90
18721;DHT22;9489;50.948;3.114;2022-12-24T11:57:15;14.40;99.90
18721;DHT22;9489;50.948;3.114;2022-12-24T11:59:47;14.30;99.90
18721;DHT22;9489;50.948;3.114;2022-12-24T12:02:28;14.20;99.90
18721;DHT22;9489;50.948;3.114;2022-12-24T12:05:04;14.10;99.90
18721;DHT22;9489;50.948;3.114;2022-12-24T12:07:34;14.10;99.90
18721;DHT22;9489;50.948;3.114;2022-12-24T12:10:14;14.10;99.90
18721;DHT22;9489;50.948;3.114;2022-12-24T12:12:45;14.10;99.90
18721;DHT22;9489;50.948;3.114;2022-12-24T12:15:16;13.90;99.90
18721;DHT22;9489;50.948;3.114;2022-12-24T12:17:57;13.80;99.90
18721;DHT22;9489;50.948;3.114;2022-12-24T12:20:38;13.70;99.90
18721;DHT22;9489;50.948;3.114;2022-12-24T12:23:24;13.60;99.90
18721;DHT22;9489;50.948;3.114;2022-12-24T12:28:22;13.40;99.90
18721;DHT22;9489;50.948;3.114;2022-12-24T12:36:45;13.30;99.90
18721;DHT22;9489;50.948;3.114;2022-12-24T12:39:11;13.20;99.90
18721;DHT22;9489;50.948;3.114;2022-12-24T12:50:08;12.90;99.90
18721;DHT22;9489;50.948;3.114;2022-12-24T12:53:11;12.90;99.90
18721;DHT22;9489;50.948;3.114;2022-12-24T12:56:17;13.00;99.90
18721;DHT22;9489;50.948;3.114;2022-12-24T12:58:53;13.10;99.90
18721;DHT22;9489;50.948;3.114;2022-12-24T13:01:28;13.10;99.90
18721;DHT22;9489;50.948;3.114;2022-12-24T13:18:12;13.40;99.90
18721;DHT22;9489;50.948;3.114;2022-12-24T13:20:47;13.30;99.90
18721;DHT22;9489;50.948;3.114;2022-12-24T13:23:18;13.30;99.90
18721;DHT22;9489;50.948;3.114;2022-12-24T13:25:48;13.30;99.90
18721;DHT22;9489;50.948;3.114;2022-12-24T13:31:38;13.40;99.90
18721;DHT22;9489;50.948;3.114;2022-12-24T13:36:15;13.30;99.90
18721;DHT22;9489;50.948;3.114;2022-12-24T13:51:50;12.80;99.90
18721;DHT22;9489;50.948;3.114;2022-12-24T13:54:24;12.70;99.90
18721;DHT22;9489;50.948;3.114;2022-12-24T13:56:52;12.60;99.90
18721;DHT22;9489;50.948;3.114;2022-12-24T13:59:36;12.60;99.90
18721;DHT22;9489;50.948;3.114;2022-12-24T14:02:03;12.60;99.90
18721;DHT22;9489;50.948;3.114;2022-12-24T14:04:33;12.70;99.90
18721;DHT22;9489;50.948;3.114;2022-12-24T14:07:02;12.80;99.90
18721;DHT22;9489;50.948;3.114;2022-12-24T14:09:30;12.80;99.90
18721;DHT22;9489;50.948;3.114;2022-12-24T14:16:57;12.70;99.90
18721;DHT22;9489;50.948;3.114;2022-12-24T14:19:44;12.60;99.90
18721;DHT22;9489;50.948;3.114;2022-12-24T14:22:32;12.60;99.90
18721;DHT22;9489;50.948;3.114;2022-12-24T14:25:08;12.60;99.90
18721;DHT22;9489;50.948;3.114;2022-12-24T14:27:45;12.60;99.90
18721;DHT22;9489;50.948;3.114;2022-12-24T14:32:40;12.50;99.90
18721;DHT22;9489;50.948;3.114;2022-12-24T14:37:39;12.60;99.90
18721;DHT22;9489;50.948;3.114;2022-12-24T14:40:06;12.50;99.90
18721;DHT22;9489;50.948;3.114;2022-12-24T14:42:55;12.50;99.90
18721;DHT22;9489;50.948;3.114;2022-12-24T14:45:34;12.40;99.90
18721;DHT22;9489;50.948;3.114;2022-12-24T14:48:22;12.30;99.90
18721;DHT22;9489;50.948;3.114;2022-12-24T14:56:20;12.30;99.90
18721;DHT22;9489;50.948;3.114;2022-12-24T14:58:47;12.30;99.90
18721;DHT22;9489;50.948;3.114;2022-12-24T15:01:22;12.30;99.90
18721;DHT22;9489;50.948;3.114;2022-12-24T15:06:55;12.20;99.90
18721;DHT22;9489;50.948;3.114;2022-12-24T15:09:31;12.10;99.90
18721;DHT22;9489;50.948;3.114;2022-12-24T15:12:00;12.10;99.90
18721;DHT22;9489;50.948;3.114;2022-12-24T15:14:29;12.00;99.90
18721;DHT22;9489;50.948;3.114;2022-12-24T15:17:01;12.00;99.90
18721;DHT22;9489;50.948;3.114;2022-12-24T15:19:32;11.90;99.90
18721;DHT22;9489;50.948;3.114;2022-12-24T15:22:00;12.00;99.90
18721;DHT22;9489;50.948;3.114;2022-12-24T15:24:33;11.90;99.90
18721;DHT22;9489;50.948;3.114;2022-12-24T15:27:18;11.80;99.90
18721;DHT22;9489;50.948;3.114;2022-12-24T15:29:46;11.80;99.90
18721;DHT22;9489;50.948;3.114;2022-12-24T15:32:14;11.60;99.90
18721;DHT22;9489;50.948;3.114;2022-12-24T15:34:43;11.60;99.90
18721;DHT22;9489;50.948;3.114;2022-12-24T15:37:28;11.60;99.90
18721;DHT22;9489;50.948;3.114;2022-12-24T15:42:26;11.50;99.90
18721;DHT22;9489;50.948;3.114;2022-12-24T15:45:02;11.40;99.90
18721;DHT22;9489;50.948;3.114;2022-12-24T15:47:36;11.40;99.90
18721;DHT22;9489;50.948;3.114;2022-12-24T15:50:27;11.30;99.90
18721;DHT22;9489;50.948;3.114;2022-12-24T15:52:55;11.30;99.90
18721;DHT22;9489;50.948;3.114;2022-12-24T15:55:37;11.30;99.90
18721;DHT22;9489;50.948;3.114;2022-12-24T15:58:44;11.20;99.90
18721;DHT22;9489;50.948;3.114;2022-12-24T16:03:41;11.10;99.90
18721;DHT22;9489;50.948;3.114;2022-12-24T16:06:19;11.00;99.90
18721;DHT22;9489;50.948;3.114;2022-12-24T16:08:46;11.00;99.90
18721;DHT22;9489;50.948;3.114;2022-12-24T16:11:25;11.00;99.90
18721;DHT22;9489;50.948;3.114;2022-12-24T16:14:13;11.00;99.90
18721;DHT22;9489;50.948;3.114;2022-12-24T16:16:50;10.90;99.90
18721;DHT22;9489;50.948;3.114;2022-12-24T16:19:25;10.90;99.90
18721;DHT22;9489;50.948;3.114;2022-12-24T16:21:57;10.90;99.90
18721;DHT22;9489;50.948;3.114;2022-12-24T16:24:26;10.90;99.90
18721;DHT22;9489;50.948;3.114;2022-12-24T16:26:53;10.90;99.90
18721;DHT22;9489;50.948;3.114;2022-12-24T16:29:19;10.90;99.90
18721;DHT22;9489;50.948;3.114;2022-12-24T16:34:12;10.80;99.90
18721;DHT22;9489;50.948;3.114;2022-12-24T16:36:43;10.80;99.90
18721;DHT22;9489;50.948;3.114;2022-12-24T16:39:18;10.80;99.90
18721;DHT22;9489;50.948;3.114;2022-12-24T16:41:54;10.80;99.90
18721;DHT22;9489;50.948;3.114;2022-12-24T16:44:39;10.70;99.90
18721;DHT22;9489;50.948;3.114;2022-12-24T16:47:09;10.70;99.90
18721;DHT22;9489;50.948;3.114;2022-12-24T16:49:37;10.70;99.90
18721;DHT22;9489;50.948;3.114;2022-12-24T16:52:05;10.70;99.90
18721;DHT22;9489;50.948;3.114;2022-12-24T16:54:31;10.70;99.90
18721;DHT22;9489;50.948;3.114;2022-12-24T16:56:56;10.70;99.90
18721;DHT22;9489;50.948;3.114;2022-12-24T16:59:23;10.70;99.90
18721;DHT22;9489;50.948;3.114;2022-12-24T17:01:49;10.70;99.90
18721;DHT22;9489;50.948;3.114;2022-12-24T17:04:16;10.70;99.90
18721;DHT22;9489;50.948;3.114;2022-12-24T17:06:42;10.70;99.90
18721;DHT22;9489;50.948;3.114;2022-12-24T17:09:09;10.70;99.90
18721;DHT22;9489;50.948;3.114;2022-12-24T17:11:35;10.70;99.90
18721;DHT22;9489;50.948;3.114;2022-12-24T17:14:01;10.70;99.90
18721;DHT22;9489;50.948;3.114;2022-12-24T17:16:27;10.70;99.90
18721;DHT22;9489;50.948;3.114;2022-12-24T17:18:53;10.60;99.90
18721;DHT22;9489;50.948;3.114;2022-12-24T17:21:19;10.60;99.90
18721;DHT22;9489;50.948;3.114;2022-12-24T17:23:44;10.60;99.90
18721;DHT22;9489;50.948;3.114;2022-12-24T17:26:11;10.60;99.90
18721;DHT22;9489;50.948;3.114;2022-12-24T17:28:37;10.50;99.90
18721;DHT22;9489;50.948;3.114;2022-12-24T17:31:11;10.50;99.90
18721;DHT22;9489;50.948;3.114;2022-12-24T17:33:37;10.50;99.90
18721;DHT22;9489;50.948;3.114;2022-12-24T17:36:03;10.50;99.90
18721;DHT22;9489;50.948;3.114;2022-12-24T17:38:29;10.60;99.90
18721;DHT22;9489;50.948;3.114;2022-12-24T17:41:06;10.50;99.90
18721;DHT22;9489;50.948;3.114;2022-12-24T17:43:33;10.50;99.90
18721;DHT22;9489;50.948;3.114;2022-12-24T17:46:02;10.50;99.90
18721;DHT22;9489;50.948;3.114;2022-12-24T17:48:28;10.50;99.90
18721;DHT22;9489;50.948;3.114;2022-12-24T17:50:54;10.40;99.90